Historyczne dane pomiarowe

Dodano dane terminowe – wersja testowa.

Dane z okresu 1951-2019

Wersja bazy: 1.34 [2019-03-16, lista zmian], aktualizacja planowana na 2019-04-15

Dane meteo z obszaru Polski uzyskane na podstawie danych udostępnionych przez Instytut Meteorologii i Gospodarki Wodnej – Państwowy Instytut Badawczy.

 

Wybierz Datę:    

       

TemperaturaWilgotnośćWiatrCiśnienieOpadyŚniegCzas trwania zjawisk
 Stacja t tx tn tng RH VA  wxwx mslp ppp RRR   cm mm wxwxwxwxwxwxwx
1987-08-14 13.4 16.4 9.4 7.4-- 6.7 3.3---- 1.6------------
1987-08-13 13.8 19.7 6.3 3.3-- 2.7 2.0---- 0.0------------
1987-08-12 13.0 18.1 6.7 5.1-- 1.7 6.0---- 0.1------------
1987-08-11 11.7 16.2 8.6 6.6-- 5.7 5.0---- 1.5------------
1987-08-10 13.4 17.4 12.4 12.2-- 7.3 3.7---- 0.8------------
1987-08-09 16.3 22.7 11.0 8.2-- 4.7 1.3---- 10.1------------
1987-08-08 14.8 20.5 6.9 5.8-- 2.3 3.3---- 0.0------------
1987-08-07 12.5 18.3 6.1 4.9-- 3.0 2.3---- 0.0------------
1987-08-06 11.1 13.2 8.2 7.2-- 6.0 5.3---- 1.6------------
1987-08-05 11.7 16.4 7.6 6.4-- 4.3 4.3---- 0.6------------
1987-08-04 13.1 17.0 11.0 9.4-- 4.3 4.3---- 1.8------------
1987-08-03 13.0 18.1 8.8 7.6-- 4.0 2.7---- 3.7------------
1987-08-02 12.6 17.2 9.8 8.8-- 5.3 4.7---- 4.5------------
1987-08-01 14.6 16.2 13.1 12.6-- 6.7 4.3---- 7.5------------
1987-07-31 15.3 19.3 12.7 13.6-- 5.3 6.3---- 0.3------------
1987-07-30 16.9 23.3 11.6 10.2-- 5.7 2.3---- 1.8------------
1987-07-29 13.7 17.4 9.6 8.4-- 5.0 3.7---- 0.1------------
1987-07-28 14.1 17.5 11.6 11.4-- 4.7 6.3---- 0.5------------
1987-07-27 12.5 16.6 8.6 7.0-- 5.3 7.3---- 1.3------------
1987-07-26 12.8 16.8 9.4 8.0-- 3.3 4.0---- 0.0------------
1987-07-25 15.3 19.6 13.5 11.8-- 4.0 5.0---- 0.0------------
1987-07-24 18.8 23.3 14.5 13.8-- 4.0 6.0---- 0.0------------
1987-07-23 20.4 26.1 13.5 11.2-- 4.3 2.3---- 16.0------------
1987-07-22 18.9 22.5 14.5 12.8-- 3.0 0.7---- 0.0------------
1987-07-21 19.2 24.3 12.9 10.4-- 4.7 1.0---- 3.4------------
1987-07-20 17.2 22.3 13.9 13.8-- 4.7 2.3---- 0.1------------
1987-07-19 17.8 22.8 15.7 17.3-- 5.3 3.3---- 11.4------------
1987-07-18 21.3 24.5 16.9 15.9-- 3.7 3.7---- 0.0------------
1987-07-17 19.8 25.1 15.3 14.2-- 5.3 6.0---- 4.8------------
1987-07-16 18.7 23.5 12.0 10.6-- 3.0 5.7---- 0.0------------
1987-07-15 17.2 22.7 10.6 7.6-- 1.3 4.3---- 0.0------------
1987-07-14 15.8 20.9 8.6 7.4-- 0.7 2.0---- 0.0------------
1987-07-13 15.2 19.1 11.6 10.2-- 3.3 5.7---- 0.0------------
1987-07-12 16.7 20.5 13.9 14.4-- 5.7 4.3---- 5.8------------
1987-07-11 14.7 19.5 9.6 7.4-- 7.3 2.7---- 44.0------------
1987-07-10 13.3 17.2 8.8 7.6-- 3.7 6.3---- 0.2------------
1987-07-09 15.6 20.8 14.5 14.6-- 5.0 3.3---- 0.3------------
1987-07-08 21.4 27.5 14.9 13.6-- 4.3 3.0---- 7.3------------
1987-07-07 21.5 26.9 13.7 10.4-- 1.3 3.0---- 0.0------------
1987-07-06 19.0 25.1 10.4 6.0-- 0.7 1.3---- 0.0------------
1987-07-05 16.7 21.3 8.6 7.0-- 1.3 2.7---- 0.0------------
1987-07-04 17.0 21.7 10.8 8.4-- 1.7 3.3---- 0.0------------
1987-07-03 17.2 22.1 11.2 10.0-- 1.7 2.7---- 0.0------------
1987-07-02 18.5 22.1 12.5 11.2-- 3.0 3.0---- 0.0------------
1987-07-01 22.0 30.1 19.8 19.1-- 6.3 3.7---- 18.0------------
1987-06-30 24.0 29.9 17.1 15.0-- 2.3 1.3---- 0.0------------
1987-06-29 19.9 25.9 12.4 9.4-- 4.3 2.7---- 0.0------------
1987-06-28 17.6 20.5 13.9 12.2-- 5.3 4.3---- 0.0------------
1987-06-27 17.3 21.5 14.2 12.8-- 3.7 4.3---- 0.0------------
1987-06-26 16.5 21.1 11.2 9.6-- 2.3 2.0---- 0.0------------
1987-06-25 13.5 16.8 10.4 9.8-- 3.3 3.7---- 0.6------------
1987-06-24 13.9 18.5 10.4 9.6-- 3.7 4.0---- 15.0------------
1987-06-23 15.8 20.1 12.0 10.6-- 3.3 2.7---- 0.0------------
1987-06-22 14.0 15.6 12.7 12.6-- 5.3 5.0---- 0.0------------
1987-06-21 18.0 24.5 11.2 8.2-- 3.0 2.0---- 3.0------------
1987-06-20 14.7 20.5 9.2 6.4-- 3.7 4.0---- 0.3------------
1987-06-19 11.7 16.8 8.8 7.8-- 3.7 2.0---- 0.0------------
1987-06-18 10.9 14.6 7.1 4.9-- 3.3 3.7---- 1.2------------
1987-06-17 11.8 14.6 9.8 9.4-- 5.7 3.7---- 0.1------------
1987-06-16 11.4 21.1 8.8 9.0-- 6.0 9.0---- 2.0------------
616.5 ms

 

Źródłem pochodzenia danych jest Instytut Meteorologii i Gospodarki Wodnej – Państwowy Instytut Badawczy. Dane Instytutu Meteorologii i Gospodarki Wodnej – Państwowego Instytutu Badawczego zostały przetworzone.

Dane źródłowe można odnaleźć na stronie https://dane.imgw.pl